Schneifelwetter: Wetterstation Hallschlag, 537 m . NN
Wetterdaten: Freitag, 23.11.2012
Datum Zeit Temp. A. Feuchte A. Luftdruck Regen Wind Richtung Richtung Sonnenschein T Regen Taupunkt Windchill
23.11.2012 00:10 3,7 C 97 % 1017 hPa 0,0 l/m 22,7 km/h (4 Bft) S-SW45 205 0 min 0 min 3,3 C -5,9 C
23.11.2012 00:25 3,7 C 97 % 1017 hPa 0,0 l/m 15,3 km/h (3 Bft) S-SW45 195 0 min 0 min 3,3 C -2,7 C
23.11.2012 00:40 3,7 C 97 % 1016 hPa 0,0 l/m 17,6 km/h (3 Bft) S-SW45 205 0 min 0 min 3,3 C -3,8 C
23.11.2012 00:55 3,8 C 97 % 1016 hPa 0,0 l/m 23,3 km/h (4 Bft) SW67.5 220 0 min 0 min 3,4 C -6,0 C
23.11.2012 01:10 3,9 C 97 % 1016 hPa 0,0 l/m 22,3 km/h (4 Bft) S-SW45 200 0 min 0 min 3,5 C -5,5 C
23.11.2012 01:25 3,9 C 97 % 1016 hPa 0,0 l/m 20,1 km/h (4 Bft) S67.5 190 0 min 0 min 3,5 C -4,6 C
23.11.2012 01:40 4,0 C 97 % 1016 hPa 0,0 l/m 22,9 km/h (4 Bft) SW45 220 0 min 0 min 3,6 C -5,6 C
23.11.2012 01:55 4,0 C 97 % 1016 hPa 0,0 l/m 26,2 km/h (4 Bft) S-SW45 195 0 min 0 min 3,6 C -6,7 C
23.11.2012 02:10 4,0 C 97 % 1016 hPa 0,0 l/m 21,1 km/h (4 Bft) S-SW45 200 0 min 0 min 3,6 C -4,9 C
23.11.2012 02:25 4,1 C 97 % 1016 hPa 0,0 l/m 18,5 km/h (3 Bft) S45 185 0 min 0 min 3,7 C -3,7 C
23.11.2012 02:40 4,1 C 97 % 1016 hPa 0,0 l/m 23,6 km/h (4 Bft) S-SW45 200 0 min 0 min 3,7 C -5,7 C
23.11.2012 02:55 4,1 C 97 % 1016 hPa 0,0 l/m 28,5 km/h (4 Bft) S-SW45 195 0 min 0 min 3,7 C -7,2 C
23.11.2012 03:10 4,1 C 97 % 1016 hPa 0,0 l/m 19,5 km/h (3 Bft) S-SW45 195 0 min 0 min 3,7 C -4,1 C
23.11.2012 03:25 3,9 C 97 % 1015 hPa 0,0 l/m 23,6 km/h (4 Bft) SW45 225 0 min 0 min 3,5 C -6,0 C
23.11.2012 03:40 3,9 C 97 % 1015 hPa 0,0 l/m 22,4 km/h (4 Bft) S22.5 185 0 min 0 min 3,5 C -5,5 C
23.11.2012 03:55 3,9 C 97 % 1015 hPa 0,0 l/m 27,0 km/h (4 Bft) S45 170 0 min 0 min 3,5 C -7,1 C
23.11.2012 04:10 3,9 C 97 % 1015 hPa 0,0 l/m 25,1 km/h (4 Bft) S45 190 0 min 0 min 3,5 C -6,5 C
23.11.2012 04:25 3,9 C 97 % 1015 hPa 0,0 l/m 21,3 km/h (4 Bft) SW67.5 215 0 min 0 min 3,5 C -5,1 C
23.11.2012 04:40 3,9 C 97 % 1015 hPa 0,0 l/m 24,6 km/h (4 Bft) S67.5 185 0 min 0 min 3,5 C -6,3 C
23.11.2012 04:55 3,9 C 97 % 1015 hPa 0,0 l/m 22,5 km/h (4 Bft) S-SW45 195 0 min 0 min 3,5 C -5,6 C
23.11.2012 05:10 4,0 C 97 % 1015 hPa 0,0 l/m 30,0 km/h (5 Bft) S-SW45 210 0 min 0 min 3,6 C -7,8 C
23.11.2012 05:25 3,9 C 97 % 1014 hPa 0,0 l/m 30,0 km/h (5 Bft) S-SW45 210 0 min 0 min 3,5 C -7,9 C
23.11.2012 05:40 3,9 C 97 % 1014 hPa 0,0 l/m 35,9 km/h (5 Bft) S-SW45 205 0 min 0 min 3,5 C -9,3 C
23.11.2012 05:55 3,9 C 96 % 1014 hPa 0,0 l/m 42,0 km/h (6 Bft) S-SW45 205 0 min 0 min 3,3 C -10,5 C
23.11.2012 06:10 3,8 C 96 % 1014 hPa 0,0 l/m 33,6 km/h (5 Bft) SW45 215 0 min 0 min 3,2 C -9,0 C
23.11.2012 06:25 3,7 C 96 % 1014 hPa 0,0 l/m 32,4 km/h (5 Bft) S-SW45 210 0 min 0 min 3,1 C -8,8 C
23.11.2012 06:40 3,5 C 96 % 1014 hPa 0,0 l/m 27,6 km/h (4 Bft) S22.5 185 0 min 0 min 2,9 C -7,8 C
23.11.2012 06:55 3,5 C 96 % 1014 hPa 0,0 l/m 23,6 km/h (4 Bft) S45 185 0 min 0 min 2,9 C -6,5 C
23.11.2012 07:10 3,6 C 97 % 1014 hPa 0,0 l/m 27,9 km/h (4 Bft) S-SW45 205 0 min 0 min 3,2 C -7,7 C
23.11.2012 07:24 3,8 C 97 % 1014 hPa 0,0 l/m 30,5 km/h (5 Bft) S-SW45 210 0 min 0 min 3,4 C -8,2 C
23.11.2012 07:39 3,9 C 97 % 1014 hPa 0,0 l/m 30,5 km/h (5 Bft) S-SW45 210 0 min 0 min 3,5 C -8,1 C
23.11.2012 08:00 4,1 C 97 % 1014 hPa 0,0 l/m 27,8 km/h (4 Bft) S-SW45 210 0 min 0 min 3,7 C -7,0 C
23.11.2012 08:16 4,1 C 97 % 1014 hPa 0,0 l/m 27,7 km/h (4 Bft) S-SW45 200 0 min 0 min 3,7 C -7,0 C
23.11.2012 08:31 4,1 C 97 % 1014 hPa 0,0 l/m 27,5 km/h (4 Bft) S-SW45 205 0 min 0 min 3,7 C -6,9 C
23.11.2012 08:46 4,3 C 97 % 1014 hPa 0,0 l/m 22,3 km/h (4 Bft) S-SW45 205 0 min 0 min 3,9 C -5,0 C
23.11.2012 09:00 4,4 C 97 % 1014 hPa 0,0 l/m 19,5 km/h (3 Bft) S-SW67.5 210 0 min 0 min 4,0 C -3,7 C
23.11.2012 09:15 4,6 C 97 % 1014 hPa 0,0 l/m 20,8 km/h (4 Bft) S-SW45 205 0 min 0 min 4,2 C -4,0 C
23.11.2012 09:30 4,6 C 96 % 1014 hPa 0,0 l/m 29,3 km/h (5 Bft) SW45 215 0 min 0 min 4,0 C -6,8 C
23.11.2012 09:46 4,7 C 96 % 1014 hPa 0,0 l/m 27,8 km/h (4 Bft) S-SW45 195 0 min 0 min 4,1 C -6,2 C
23.11.2012 10:01 4,9 C 96 % 1014 hPa 0,0 l/m 18,3 km/h (3 Bft) S67.5 190 0 min 0 min 4,3 C -2,6 C
23.11.2012 10:16 4,9 C 95 % 1015 hPa 0,0 l/m 25,7 km/h (4 Bft) S-SW45 195 0 min 0 min 4,2 C -5,3 C
23.11.2012 10:30 5,1 C 95 % 1015 hPa 0,0 l/m 30,2 km/h (5 Bft) S-SW67.5 205 0 min 0 min 4,4 C -6,3 C
23.11.2012 10:45 5,1 C 95 % 1015 hPa 0,0 l/m 27,5 km/h (4 Bft) S-SW22.5 210 0 min 0 min 4,4 C -5,6 C
23.11.2012 11:00 5,2 C 94 % 1015 hPa 0,0 l/m 27,5 km/h (4 Bft) S-SW22.5 210 0 min 0 min 4,3 C -5,4 C
23.11.2012 11:16 5,2 C 94 % 1015 hPa 0,0 l/m 25,0 km/h (4 Bft) S-SW45 205 0 min 0 min 4,3 C -4,7 C
23.11.2012 11:31 5,4 C 93 % 1015 hPa 0,0 l/m 21,3 km/h (4 Bft) S-SW45 200 0 min 0 min 4,4 C -3,1 C
23.11.2012 11:46 5,5 C 93 % 1015 hPa 0,0 l/m 12,8 km/h (3 Bft) S45 170 0 min 0 min 4,5 C 0,9 C
23.11.2012 12:00 5,6 C 92 % 1015 hPa 0,0 l/m 31,7 km/h (5 Bft) S-SW45 200 0 min 0 min 4,4 C -5,9 C
23.11.2012 12:15 5,6 C 92 % 1014 hPa 0,0 l/m 28,0 km/h (4 Bft) S-SW45 210 0 min 0 min 4,4 C -5,0 C
23.11.2012 12:30 5,7 C 92 % 1014 hPa 0,0 l/m 20,5 km/h (4 Bft) S45 180 0 min 0 min 4,5 C -2,5 C
23.11.2012 12:46 5,9 C 92 % 1014 hPa 0,0 l/m 17,2 km/h (3 Bft) S67.5 180 0 min 0 min 4,7 C -0,9 C
23.11.2012 13:01 6,0 C 92 % 1014 hPa 0,0 l/m 17,1 km/h (3 Bft) S-SW22.5 205 0 min 0 min 4,8 C -0,7 C
23.11.2012 13:15 6,1 C 92 % 1014 hPa 0,0 l/m 15,6 km/h (3 Bft) S-SW45 195 0 min 0 min 4,9 C 0,1 C
23.11.2012 13:30 6,0 C 92 % 1014 hPa 0,0 l/m 13,9 km/h (3 Bft) S-SO22.5 165 0 min 0 min 4,8 C 0,8 C
23.11.2012 13:45 6,0 C 93 % 1014 hPa 0,0 l/m 23,6 km/h (4 Bft) SW67.5 220 0 min 0 min 5,0 C -3,1 C
23.11.2012 14:00 6,0 C 93 % 1014 hPa 0,0 l/m 17,1 km/h (3 Bft) S-SW22.5 205 0 min 0 min 5,0 C -0,7 C
23.11.2012 14:16 6,0 C 93 % 1014 hPa 0,0 l/m 18,1 km/h (3 Bft) S45 185 0 min 0 min 5,0 C -1,1 C
23.11.2012 14:31 6,0 C 93 % 1014 hPa 0,0 l/m 22,3 km/h (4 Bft) S-SW45 200 0 min 0 min 5,0 C -2,7 C
23.11.2012 14:45 5,8 C 93 % 1014 hPa 0,0 l/m 18,8 km/h (3 Bft) S-SW45 205 0 min 0 min 4,8 C -1,7 C
23.11.2012 15:00 5,6 C 94 % 1014 hPa 0,0 l/m 26,8 km/h (4 Bft) S-SW45 205 0 min 0 min 4,7 C -4,7 C
23.11.2012 15:15 5,6 C 94 % 1014 hPa 0,0 l/m 20,6 km/h (4 Bft) S22.5 190 0 min 0 min 4,7 C -2,6 C
23.11.2012 15:30 5,6 C 94 % 1014 hPa 0,0 l/m 13,9 km/h (3 Bft) S-SW22.5 195 0 min 0 min 4,7 C 0,4 C
23.11.2012 15:46 5,6 C 95 % 1014 hPa 0,0 l/m 13,9 km/h (3 Bft) S-SW22.5 195 0 min 0 min 4,9 C 0,4 C
23.11.2012 16:01 5,6 C 94 % 1014 hPa 0,0 l/m 23,1 km/h (4 Bft) S-SW45 205 0 min 0 min 4,7 C -3,5 C
23.11.2012 16:15 5,6 C 94 % 1014 hPa 0,0 l/m 24,8 km/h (4 Bft) S-SW45 205 0 min 0 min 4,7 C -4,1 C
23.11.2012 16:30 5,5 C 94 % 1014 hPa 0,0 l/m 19,9 km/h (4 Bft) S-SW45 205 0 min 0 min 4,6 C -2,5 C
23.11.2012 16:45 5,5 C 94 % 1014 hPa 0,0 l/m 19,0 km/h (3 Bft) S-SW45 205 0 min 0 min 4,6 C -2,1 C
23.11.2012 17:00 5,4 C 95 % 1014 hPa 0,6 l/m 15,4 km/h (3 Bft) S22.5 190 0 min 15 min 4,7 C -0,6 C
23.11.2012 17:16 5,3 C 95 % 1014 hPa 0,0 l/m 22,7 km/h (4 Bft) S-SW45 200 0 min 0 min 4,6 C -3,8 C
23.11.2012 17:31 5,4 C 95 % 1014 hPa 0,0 l/m 25,4 km/h (4 Bft) SW45 220 0 min 0 min 4,7 C -4,5 C
23.11.2012 17:45 5,5 C 96 % 1014 hPa 0,0 l/m 23,5 km/h (4 Bft) S-SW67.5 205 0 min 0 min 4,9 C -3,8 C
23.11.2012 18:00 5,6 C 96 % 1014 hPa 0,3 l/m 23,1 km/h (4 Bft) SW67.5 225 0 min 15 min 5,0 C -3,5 C
23.11.2012 18:15 5,6 C 96 % 1015 hPa 0,0 l/m 24,5 km/h (4 Bft) SW45 215 0 min 0 min 5,0 C -4,0 C
23.11.2012 18:30 5,6 C 96 % 1015 hPa 0,0 l/m 19,3 km/h (3 Bft) S45 190 0 min 0 min 5,0 C -2,1 C
23.11.2012 18:46 5,5 C 96 % 1015 hPa 0,0 l/m 17,1 km/h (3 Bft) S-SW22.5 205 0 min 0 min 4,9 C -1,3 C
23.11.2012 19:01 5,5 C 96 % 1015 hPa 0,0 l/m 17,1 km/h (3 Bft) S-SW22.5 205 0 min 0 min 4,9 C -1,3 C
23.11.2012 19:15 5,6 C 97 % 1015 hPa 0,0 l/m 10,4 km/h (2 Bft) S-SW22.5 210 0 min 0 min 5,2 C 2,5 C
23.11.2012 19:30 5,5 C 97 % 1015 hPa 0,0 l/m 15,6 km/h (3 Bft) S45 190 0 min 0 min 5,1 C -0,6 C
23.11.2012 19:45 5,5 C 97 % 1015 hPa 0,0 l/m 16,0 km/h (3 Bft) S-SW45 195 0 min 0 min 5,1 C -0,8 C
23.11.2012 20:00 5,6 C 97 % 1015 hPa 0,0 l/m 20,1 km/h (4 Bft) SW45 225 0 min 0 min 5,2 C -2,4 C
23.11.2012 20:16 5,6 C 97 % 1015 hPa 1,8 l/m 20,3 km/h (4 Bft) SW45 220 0 min 16 min 5,2 C -2,5 C
23.11.2012 20:31 5,5 C 97 % 1015 hPa 0,0 l/m 13,6 km/h (3 Bft) S-SW45 205 0 min 0 min 5,1 C 0,4 C
23.11.2012 20:45 5,5 C 97 % 1015 hPa 0,0 l/m 15,8 km/h (3 Bft) S-SW22.5 205 0 min 0 min 5,1 C -0,7 C
23.11.2012 21:00 5,6 C 97 % 1015 hPa 0,0 l/m 15,6 km/h (3 Bft) SW45 215 0 min 0 min 5,2 C -0,5 C
23.11.2012 21:15 5,5 C 97 % 1015 hPa 0,0 l/m 15,6 km/h (3 Bft) SW45 215 0 min 0 min 5,1 C -0,6 C
23.11.2012 21:30 5,5 C 97 % 1015 hPa 0,0 l/m 15,0 km/h (3 Bft) SW45 215 0 min 0 min 5,1 C -0,3 C
23.11.2012 21:46 5,5 C 97 % 1015 hPa 0,0 l/m 13,7 km/h (3 Bft) S22.5 190 0 min 0 min 5,1 C 0,4 C
23.11.2012 21:45 5,5 C 97 % 1015 hPa 0,0 l/m 13,7 km/h (3 Bft) S22.5 190 0 min 0 min 5,1 C 0,4 C
23.11.2012 22:00 5,5 C 97 % 1015 hPa 0,0 l/m 10,1 km/h (2 Bft) S22.5 170 0 min 0 min 5,1 C 2,6 C
23.11.2012 22:15 5,4 C 97 % 1015 hPa 0,0 l/m 6,7 km/h (2 Bft) S22.5 180 0 min 0 min 5,0 C 5,2 C
23.11.2012 22:30 5,3 C 97 % 1015 hPa 0,0 l/m 9,7 km/h (2 Bft) S 170 0 min 0 min 4,9 C 2,6 C
23.11.2012 22:46 5,3 C 98 % 1015 hPa 0,0 l/m 7,5 km/h (2 Bft) S45 180 0 min 0 min 5,0 C 4,3 C
23.11.2012 23:01 5,4 C 98 % 1015 hPa 0,0 l/m 7,5 km/h (2 Bft) S45 180 0 min 0 min 5,1 C 4,4 C
23.11.2012 23:15 5,4 C 98 % 1015 hPa 0,0 l/m 10,1 km/h (2 Bft) S45 185 0 min 0 min 5,1 C 2,4 C
23.11.2012 23:30 5,5 C 98 % 1015 hPa 0,0 l/m 17,3 km/h (3 Bft) S-SW45 200 0 min 0 min 5,2 C -1,4 C
23.11.2012 23:45 5,5 C 98 % 1015 hPa 0,0 l/m 8,7 km/h (2 Bft) S45 185 0 min 0 min 5,2 C 3,6 C
_ Min-Zeit 06:40 12:00 05:25 - 22:15 - - - - 06:40 05:55
Minimum _ 3,5 C 92 % 1014 hPa - 6,7 km/h (2 Bft) - - - - 2,9 C -10,5 C
_ Max-Zeit 13:15 22:46 00:10 20:16 05:55 - - 00:10 20:16 23:30 22:15
Maximum _ 6,1 C 98 % 1017 hPa 1,8 l/m 42,0 km/h
S-SW (6 Bft)
- - 0 min 16 min 5,2 C 5,2 C
Durchschnitt _ 4,9 C 96 % 1015 hPa #2,7 l/m 21,3 km/h (4 Bft) S-SW - #0 min. #46 min. 4,3 C -3,4 C